Portada
METAR-TAF:

METAR-TAF

Aeroports :

Al-Hassà, Aràbia Saudita

latitud: 25-18N, longitud: 049-29E, altitud: 179 m

Observació

L'informe es va fer fa 1 hora i 6 minuts, a les 22:00 UTC
Vent 8 kt del Oest
Temperatura 37°C
Humitat 14%
Pressió 996 hPa
Visibilitat 10 km o més
sense núvols per sota de 1500 mi sense presència de cumulonimbus.

METAR: OEAH 182200Z 26008KT CAVOK 37/05 Q0996 NOSIG

Hora: 02:06 (23:06 UTC)

Pronòstic

L'informe es va fer fa 13 hores i 6 minuts, a les 10:00 UTC
Pronòstic vàlid del 18 a les 12 UTC al 19 a les 18 UTC
Vent 13 kt del Nord/Nord-Oest
Visibilitat 10 km o més
sense núvols per sota de 1500 mi sense presència de cumulonimbus.
Evolucionant progressivament
l' 18 a les 16 UTC al 18 a les 18 UTC
Vent 3 kt amb direcció variable
Evolucionant progressivament
l' 19 a les 00 UTC al 19 a les 02 UTC
Vent 10 kt del Nord/Nord-Oest

TAF: OEAH 181000Z 1812/1918 34013KT CAVOK BECMG 1816/1818 VRB03KT BECMG 1900/1902 33010KT

Observacions i pronòstics meteorològics de més de 4000 aeroports (METAR i TAF).

Les estacions disponibles són els punts grocs i vermells al mapa.

Posi el ratolí al punt desitjat per veure el nom de l'estació.

Feu clic per veure les observacions i els pronòstics meteorològics.

Per canviar el mapa: feu clic els botons verds amb una creu de color negre per apropar; al botó verd amb un guió per allunyar la imatge; o en les fletxes verdes per a mapes adjacents.


METAR-TAF: